createdAt,value
2019-05-20T00:00:28.139Z,13.44
2019-05-20T00:01:28.100Z,13.54
2019-05-20T00:02:28.640Z,13.54
2019-05-20T00:03:28.078Z,13.55
2019-05-20T00:04:28.061Z,13.44
2019-05-20T00:05:28.081Z,13.41
2019-05-20T00:06:28.044Z,13.51
2019-05-20T00:07:28.033Z,13.44
2019-05-20T00:08:28.049Z,13.38
2019-05-20T00:09:28.075Z,13.45
2019-05-20T00:10:28.013Z,13.44
2019-05-20T00:11:27.992Z,13.42
2019-05-20T00:12:27.979Z,13.44
2019-05-20T00:13:27.967Z,13.36
2019-05-20T00:14:27.968Z,13.38
2019-05-20T00:15:27.993Z,13.30
2019-05-20T00:16:27.927Z,13.33
2019-05-20T00:17:27.927Z,13.28
2019-05-20T00:18:27.926Z,13.30
2019-05-20T00:19:27.901Z,13.29
2019-05-20T00:20:27.902Z,13.30
2019-05-20T00:21:27.876Z,13.26
2019-05-20T00:22:27.905Z,13.32
2019-05-20T00:23:27.851Z,13.28
2019-05-20T00:24:27.876Z,13.29
2019-05-20T00:25:27.867Z,13.26
2019-05-20T00:26:27.822Z,13.32
2019-05-20T00:27:27.807Z,13.29
2019-05-20T00:28:27.805Z,13.26
2019-05-20T00:29:27.801Z,13.25
2019-05-20T00:30:27.794Z,13.26
2019-05-20T00:31:27.780Z,13.23
2019-05-20T00:32:40.197Z,13.15
2019-05-20T00:33:28.739Z,13.17
2019-05-20T00:34:35.112Z,13.20
2019-05-20T00:35:28.731Z,13.15
2019-05-20T00:36:27.703Z,13.17
2019-05-20T00:37:27.714Z,13.14
2019-05-20T00:38:27.687Z,13.15
2019-05-20T00:39:27.688Z,13.08
2019-05-20T00:40:27.697Z,13.10
2019-05-20T00:41:27.676Z,12.97
2019-05-20T00:42:27.679Z,13.07
2019-05-20T00:43:27.664Z,13.00
2019-05-20T00:44:27.623Z,13.04
2019-05-20T00:45:27.602Z,13.04
2019-05-20T00:46:27.621Z,13.00
2019-05-20T00:47:27.598Z,13.00
2019-05-20T00:48:27.577Z,13.01
2019-05-20T00:49:27.580Z,13.01
2019-05-20T00:50:27.546Z,12.93
2019-05-20T00:51:27.584Z,12.95
2019-05-20T00:52:27.540Z,12.97
2019-05-20T00:53:27.516Z,12.93
2019-05-20T00:54:27.523Z,12.89
2019-05-20T00:55:27.539Z,12.89
2019-05-20T00:56:27.481Z,12.75
2019-05-20T00:57:27.470Z,12.83
2019-05-20T00:58:27.493Z,12.82
2019-05-20T00:59:27.449Z,12.78
2019-05-20T01:00:27.458Z,12.75
2019-05-20T01:01:27.462Z,12.75
2019-05-20T01:02:27.414Z,12.77
2019-05-20T01:03:27.403Z,12.75
2019-05-20T01:04:27.397Z,12.75
2019-05-20T01:05:27.379Z,12.74
2019-05-20T01:06:27.389Z,12.77
2019-05-20T01:07:27.373Z,12.74
2019-05-20T01:08:27.350Z,12.74
2019-05-20T01:09:27.353Z,12.72
2019-05-20T01:10:27.338Z,12.74
2019-05-20T01:11:27.347Z,12.79
2019-05-20T01:12:27.314Z,12.70
2019-05-20T01:13:27.308Z,12.70
2019-05-20T01:14:27.277Z,12.68
2019-05-20T01:15:27.273Z,12.70
2019-05-20T01:16:27.272Z,12.71
2019-05-20T01:17:27.242Z,12.70
2019-05-20T01:18:27.252Z,12.67
2019-05-20T01:19:27.222Z,12.72
2019-05-20T01:20:27.212Z,12.70
2019-05-20T01:21:27.231Z,12.70
2019-05-20T01:22:27.210Z,12.62
2019-05-20T01:23:27.180Z,12.52
2019-05-20T01:24:27.186Z,12.67
2019-05-20T01:25:27.170Z,12.59
2019-05-20T01:26:27.161Z,12.57
2019-05-20T01:27:27.153Z,12.56
2019-05-20T01:28:27.124Z,12.50
2019-05-20T01:29:27.140Z,12.47
2019-05-20T01:30:27.100Z,12.49
2019-05-20T01:31:27.118Z,12.53
2019-05-20T01:32:27.099Z,12.45
2019-05-20T01:33:27.068Z,12.42
2019-05-20T01:34:27.055Z,12.42
2019-05-20T01:35:27.050Z,12.42
2019-05-20T01:36:27.051Z,12.39
2019-05-20T01:37:27.037Z,12.37
2019-05-20T01:38:27.012Z,12.46
2019-05-20T01:39:27.023Z,12.45
2019-05-20T01:40:27.003Z,12.37
2019-05-20T01:41:26.989Z,12.46
2019-05-20T01:42:26.989Z,12.35
2019-05-20T01:43:26.957Z,12.39
2019-05-20T01:44:26.939Z,12.32
2019-05-20T01:45:26.932Z,12.41
2019-05-20T01:46:26.919Z,12.35
2019-05-20T01:47:26.945Z,12.31
2019-05-20T01:48:26.919Z,12.34
2019-05-20T01:49:26.901Z,12.27
2019-05-20T01:50:26.882Z,12.27
2019-05-20T01:51:26.860Z,12.28
2019-05-20T01:52:26.876Z,12.19
2019-05-20T01:53:26.849Z,12.16
2019-05-20T01:54:26.853Z,12.14
2019-05-20T01:55:26.815Z,12.17
2019-05-20T01:56:26.805Z,12.20
2019-05-20T01:57:26.808Z,12.20
2019-05-20T01:58:26.794Z,12.13
2019-05-20T01:59:26.786Z,12.23
2019-05-20T02:00:26.760Z,12.17
2019-05-20T02:01:26.750Z,12.19
2019-05-20T02:02:26.751Z,12.21
2019-05-20T02:03:31.937Z,12.17
2019-05-20T02:04:27.706Z,12.12
2019-05-20T02:05:26.744Z,12.17
2019-05-20T02:06:26.699Z,12.16
2019-05-20T02:07:26.710Z,12.13
2019-05-20T02:08:26.668Z,12.12
2019-05-20T02:09:26.675Z,12.19
2019-05-20T02:10:26.648Z,12.20
2019-05-20T02:11:26.637Z,12.12
2019-05-20T02:12:26.624Z,12.14
2019-05-20T02:13:26.649Z,12.20
2019-05-20T02:14:26.604Z,12.17
2019-05-20T02:15:26.640Z,12.16
2019-05-20T02:16:26.610Z,12.20
2019-05-20T02:17:26.595Z,12.12
2019-05-20T02:18:26.615Z,12.16
2019-05-20T02:19:26.551Z,12.16
2019-05-20T02:20:26.540Z,12.16
2019-05-20T02:21:26.527Z,12.14
2019-05-20T02:22:26.520Z,12.04
2019-05-20T02:23:26.526Z,12.05
2019-05-20T02:24:26.511Z,11.99
2019-05-20T02:25:26.493Z,12.13
2019-05-20T02:26:26.473Z,12.04
2019-05-20T02:27:26.463Z,12.01
2019-05-20T02:28:26.488Z,12.07
2019-05-20T02:29:26.455Z,12.07
2019-05-20T02:30:26.437Z,12.04
2019-05-20T02:31:26.420Z,11.98
2019-05-20T02:32:26.422Z,11.94
2019-05-20T02:33:26.424Z,11.95
2019-05-20T02:34:26.401Z,11.96
2019-05-20T02:35:26.392Z,12.02
2019-05-20T02:36:26.380Z,11.99
2019-05-20T02:37:26.352Z,11.96
2019-05-20T02:38:26.340Z,11.94
2019-05-20T02:39:26.897Z,11.98
2019-05-20T02:40:26.329Z,11.88
2019-05-20T02:41:26.336Z,11.99
2019-05-20T02:42:26.295Z,11.94
2019-05-20T02:43:26.279Z,11.90
2019-05-20T02:44:26.296Z,11.86
2019-05-20T02:45:26.263Z,11.94
2019-05-20T02:46:26.277Z,11.96
2019-05-20T02:47:26.278Z,11.94
2019-05-20T02:48:26.221Z,11.85
2019-05-20T02:49:26.234Z,11.90
2019-05-20T02:50:26.206Z,11.85
2019-05-20T02:51:26.192Z,11.88
2019-05-20T02:52:26.189Z,11.91
2019-05-20T02:53:26.167Z,11.82
2019-05-20T02:54:26.195Z,11.83
2019-05-20T02:55:26.174Z,11.83
2019-05-20T02:56:26.136Z,11.88
2019-05-20T02:57:26.123Z,11.88
2019-05-20T02:58:26.157Z,11.86
2019-05-20T02:59:26.130Z,11.85
2019-05-20T03:00:26.125Z,11.85
2019-05-20T03:01:26.111Z,11.86
2019-05-20T03:02:26.072Z,11.80
2019-05-20T03:03:26.062Z,11.88
2019-05-20T03:04:26.064Z,11.78
2019-05-20T03:05:26.073Z,11.85
2019-05-20T03:06:26.087Z,11.82
2019-05-20T03:07:26.016Z,11.82
2019-05-20T03:08:26.018Z,11.79
2019-05-20T03:09:26.009Z,11.85
2019-05-20T03:10:25.982Z,11.79
2019-05-20T03:11:25.971Z,11.82
2019-05-20T03:12:25.963Z,11.80
2019-05-20T03:13:25.954Z,11.83
2019-05-20T03:14:25.979Z,11.80
2019-05-20T03:15:25.946Z,11.80
2019-05-20T03:16:25.942Z,11.73
2019-05-20T03:17:25.919Z,11.67
2019-05-20T03:18:25.898Z,11.69
2019-05-20T03:19:25.900Z,11.72
2019-05-20T03:20:25.920Z,11.65
2019-05-20T03:21:25.879Z,11.69
2019-05-20T03:22:25.877Z,11.72
2019-05-20T03:23:25.866Z,11.67
2019-05-20T03:24:25.845Z,11.70
2019-05-20T03:25:25.854Z,11.73
2019-05-20T03:26:25.802Z,11.72
2019-05-20T03:27:25.809Z,11.73
2019-05-20T03:28:25.780Z,11.73
2019-05-20T03:29:25.842Z,11.70
2019-05-20T03:30:25.815Z,11.65
2019-05-20T03:31:25.784Z,11.64
2019-05-20T03:32:25.733Z,11.64
2019-05-20T03:33:25.747Z,11.72
2019-05-20T03:34:45.198Z,11.62
2019-05-20T03:35:26.726Z,11.70
2019-05-20T03:36:25.717Z,11.69
2019-05-20T03:37:25.680Z,11.62
2019-05-20T03:38:25.674Z,11.62
2019-05-20T03:39:25.697Z,11.54
2019-05-20T03:40:25.681Z,11.54
2019-05-20T03:41:25.639Z,11.57
2019-05-20T03:42:25.646Z,11.67
2019-05-20T03:43:25.635Z,11.61
2019-05-20T03:44:25.625Z,11.64
2019-05-20T03:45:25.602Z,11.60
2019-05-20T03:46:25.630Z,11.57
2019-05-20T03:47:25.576Z,11.57
2019-05-20T03:48:25.582Z,11.60
2019-05-20T03:49:25.563Z,11.58
2019-05-20T03:50:25.561Z,11.54
2019-05-20T03:51:25.553Z,11.47
2019-05-20T03:52:25.519Z,11.54
2019-05-20T03:53:25.517Z,11.49
2019-05-20T03:54:25.575Z,11.54
2019-05-20T03:55:25.487Z,11.52
2019-05-20T03:56:25.503Z,11.49
2019-05-20T03:57:25.472Z,11.46
2019-05-20T03:58:25.451Z,11.47
2019-05-20T03:59:25.528Z,11.52
2019-05-20T04:00:25.447Z,11.52
2019-05-20T04:01:25.439Z,11.55
2019-05-20T04:02:25.432Z,11.44
2019-05-20T04:03:25.405Z,11.52
2019-05-20T04:04:25.556Z,11.46
2019-05-20T04:05:25.401Z,11.42
2019-05-20T04:06:25.401Z,11.44
2019-05-20T04:07:25.350Z,11.40
2019-05-20T04:08:25.432Z,11.42
2019-05-20T04:09:25.369Z,11.42
2019-05-20T04:10:25.337Z,11.44
2019-05-20T04:11:25.330Z,11.52
2019-05-20T04:12:25.297Z,11.46
2019-05-20T04:13:25.300Z,11.52
2019-05-20T04:14:25.291Z,11.54
2019-05-20T04:15:25.290Z,11.51
2019-05-20T04:16:25.296Z,11.51
2019-05-20T04:17:25.244Z,11.51
2019-05-20T04:18:25.233Z,11.49
2019-05-20T04:19:25.238Z,11.46
2019-05-20T04:20:25.214Z,11.52
2019-05-20T04:21:25.221Z,11.51
2019-05-20T04:22:25.212Z,11.60
2019-05-20T04:23:25.223Z,11.51
2019-05-20T04:24:25.167Z,11.60
2019-05-20T04:25:25.156Z,11.55
2019-05-20T04:26:25.165Z,11.54
2019-05-20T04:27:25.159Z,11.54
2019-05-20T04:28:25.120Z,11.65
2019-05-20T04:29:25.138Z,11.60
2019-05-20T04:30:25.104Z,11.58
2019-05-20T04:31:25.094Z,11.57
2019-05-20T04:32:25.101Z,11.65
2019-05-20T04:33:25.096Z,11.55
2019-05-20T04:34:25.051Z,11.62
2019-05-20T04:35:25.059Z,11.64
2019-05-20T04:36:25.054Z,11.64
2019-05-20T04:37:25.074Z,11.64
2019-05-20T04:38:25.037Z,11.69
2019-05-20T04:39:25.022Z,11.72
2019-05-20T04:40:24.999Z,11.72
2019-05-20T04:41:24.994Z,11.73
2019-05-20T04:42:24.970Z,11.85
2019-05-20T04:43:24.980Z,11.76
2019-05-20T04:44:24.947Z,11.88
2019-05-20T04:45:24.961Z,11.94
2019-05-20T04:46:24.924Z,11.94
2019-05-20T04:47:24.935Z,11.99
2019-05-20T04:48:24.926Z,12.02
2019-05-20T04:49:24.913Z,11.96
2019-05-20T04:50:24.893Z,12.05
2019-05-20T04:51:24.886Z,12.04
2019-05-20T04:52:24.903Z,11.99
2019-05-20T04:53:24.867Z,12.16
2019-05-20T04:54:24.860Z,12.16
2019-05-20T04:55:24.829Z,12.13
2019-05-20T04:56:28.389Z,12.21
2019-05-20T04:57:24.842Z,12.20
2019-05-20T04:58:24.813Z,12.13
2019-05-20T04:59:24.785Z,12.14
2019-05-20T05:00:24.784Z,12.21
2019-05-20T05:01:24.771Z,12.20
2019-05-20T05:02:24.772Z,12.34
2019-05-20T05:03:24.781Z,12.17
2019-05-20T05:04:24.739Z,12.24
2019-05-20T05:05:37.288Z,12.23
2019-05-20T05:06:25.709Z,12.27
2019-05-20T05:07:24.701Z,12.41
2019-05-20T05:08:24.719Z,12.41
2019-05-20T05:09:24.674Z,12.37
2019-05-20T05:10:24.663Z,12.46
2019-05-20T05:11:24.679Z,12.42
2019-05-20T05:12:24.657Z,12.47
2019-05-20T05:13:24.657Z,12.57
2019-05-20T05:14:24.653Z,12.56
2019-05-20T05:15:24.628Z,12.64
2019-05-20T05:16:24.603Z,12.60
2019-05-20T05:17:24.586Z,12.71
2019-05-20T05:18:24.569Z,12.71
2019-05-20T05:19:24.606Z,12.72
2019-05-20T05:20:24.556Z,12.74
2019-05-20T05:21:24.551Z,12.79
2019-05-20T05:22:24.564Z,12.85
2019-05-20T05:23:24.540Z,12.92
2019-05-20T05:24:24.538Z,12.87
2019-05-20T05:25:24.512Z,13.00
2019-05-20T05:26:24.486Z,13.10
2019-05-20T05:27:24.508Z,13.08
2019-05-20T05:28:24.539Z,13.12
2019-05-20T05:29:24.467Z,13.22
2019-05-20T05:30:24.458Z,13.25
2019-05-20T05:31:24.446Z,13.29
2019-05-20T05:32:24.422Z,13.30
2019-05-20T05:33:24.420Z,13.36
2019-05-20T05:34:24.423Z,13.39
2019-05-20T05:35:24.382Z,13.57
2019-05-20T05:36:24.385Z,13.54
2019-05-20T05:37:24.365Z,13.54
2019-05-20T05:38:24.372Z,13.60
2019-05-20T05:39:24.356Z,13.67
2019-05-20T05:40:24.324Z,13.69
2019-05-20T05:41:24.343Z,13.78
2019-05-20T05:42:24.307Z,13.81
2019-05-20T05:43:24.297Z,13.81
2019-05-20T05:44:24.303Z,13.87
2019-05-20T05:45:24.269Z,14.00
2019-05-20T05:46:24.264Z,14.03
2019-05-20T05:47:24.271Z,13.99
2019-05-20T05:48:24.238Z,14.02
2019-05-20T05:49:24.250Z,14.09
2019-05-20T05:50:24.212Z,14.20
2019-05-20T05:51:24.202Z,14.27
2019-05-20T05:52:24.212Z,14.29
2019-05-20T05:53:24.185Z,14.29
2019-05-20T05:54:24.221Z,14.35
2019-05-20T05:55:24.161Z,14.39
2019-05-20T05:56:24.158Z,14.36
2019-05-20T05:57:24.151Z,14.37
2019-05-20T05:58:24.154Z,14.51
2019-05-20T05:59:24.132Z,14.55
2019-05-20T06:00:24.175Z,14.58
2019-05-20T06:01:24.107Z,14.58
2019-05-20T06:02:24.104Z,14.62
2019-05-20T06:03:24.090Z,14.62
2019-05-20T06:04:24.061Z,14.65
2019-05-20T06:05:24.074Z,14.69
2019-05-20T06:06:24.059Z,14.72
2019-05-20T06:07:24.034Z,14.78
2019-05-20T06:08:24.024Z,14.83
2019-05-20T06:09:24.019Z,14.84
2019-05-20T06:10:24.013Z,14.86
2019-05-20T06:11:23.990Z,14.83
2019-05-20T06:12:24.058Z,14.89
2019-05-20T06:13:23.969Z,14.96
2019-05-20T06:14:23.959Z,14.98
2019-05-20T06:15:23.971Z,15.06
2019-05-20T06:16:36.139Z,15.10
2019-05-20T06:17:24.917Z,15.16
2019-05-20T06:18:23.939Z,15.13
2019-05-20T06:19:23.913Z,15.23
2019-05-20T06:20:23.913Z,15.31
2019-05-20T06:21:23.891Z,15.25
2019-05-20T06:22:23.933Z,15.32
2019-05-20T06:23:23.871Z,15.39
2019-05-20T06:24:23.855Z,15.49
2019-05-20T06:25:23.871Z,15.43
2019-05-20T06:26:23.823Z,15.47
2019-05-20T06:27:23.852Z,15.53
2019-05-20T06:28:23.803Z,15.54
2019-05-20T06:29:23.792Z,15.54
2019-05-20T06:30:23.802Z,15.44
2019-05-20T06:31:23.783Z,15.46
2019-05-20T06:32:23.773Z,15.59
2019-05-20T06:33:23.762Z,15.60
2019-05-20T06:34:23.764Z,15.54
2019-05-20T06:35:23.808Z,15.57
2019-05-20T06:36:26.864Z,15.71
2019-05-20T06:37:23.700Z,15.65
2019-05-20T06:38:23.710Z,15.68
2019-05-20T06:39:23.740Z,15.65
2019-05-20T06:40:23.664Z,15.62
2019-05-20T06:41:23.700Z,15.75
2019-05-20T06:42:23.647Z,15.75
2019-05-20T06:43:23.634Z,15.72
2019-05-20T06:44:23.656Z,15.83
2019-05-20T06:45:23.646Z,15.80
2019-05-20T06:46:23.626Z,15.86
2019-05-20T06:47:23.597Z,15.78
2019-05-20T06:48:23.579Z,15.82
2019-05-20T06:49:23.584Z,15.84
2019-05-20T06:50:23.560Z,15.75
2019-05-20T06:51:23.581Z,15.80
2019-05-20T06:52:35.480Z,15.78
2019-05-20T06:53:24.528Z,15.83
2019-05-20T06:54:23.524Z,15.83
2019-05-20T06:55:23.505Z,15.84
2019-05-20T06:56:23.552Z,15.83
2019-05-20T06:57:23.994Z,15.86
2019-05-20T06:58:23.474Z,15.94
2019-05-20T06:59:23.482Z,15.93
2019-05-20T07:00:23.459Z,16.01
2019-05-20T07:01:23.456Z,15.96
2019-05-20T07:02:23.427Z,15.94
2019-05-20T07:03:23.411Z,15.92
2019-05-20T07:04:23.413Z,15.96
2019-05-20T07:05:23.405Z,15.97
2019-05-20T07:06:23.409Z,16.01
2019-05-20T07:07:23.377Z,16.07
2019-05-20T07:08:23.378Z,16.01
2019-05-20T07:09:23.354Z,16.01
2019-05-20T07:10:23.354Z,16.01
2019-05-20T07:11:23.353Z,16.05
2019-05-20T07:12:38.531Z,16.11
2019-05-20T07:13:24.300Z,16.09
2019-05-20T07:14:23.329Z,16.14
2019-05-20T07:15:23.286Z,16.08
2019-05-20T07:16:23.289Z,16.15
2019-05-20T07:17:23.301Z,16.14
2019-05-20T07:18:23.251Z,16.23
2019-05-20T07:19:23.247Z,16.21
2019-05-20T07:20:23.251Z,16.30
2019-05-20T07:21:23.272Z,16.27
2019-05-20T07:22:23.192Z,16.30
2019-05-20T07:23:23.191Z,16.39
2019-05-20T07:24:23.195Z,16.34
2019-05-20T07:25:23.193Z,16.45
2019-05-20T07:26:23.167Z,16.41
2019-05-20T07:27:23.197Z,16.48
2019-05-20T07:28:23.170Z,16.50
2019-05-20T07:29:23.129Z,16.48
2019-05-20T07:30:23.126Z,16.50
2019-05-20T07:31:23.113Z,16.53
2019-05-20T07:32:23.135Z,16.48
2019-05-20T07:33:23.098Z,16.57
2019-05-20T07:34:23.084Z,16.66
2019-05-20T07:35:30.204Z,16.68
2019-05-20T07:36:24.065Z,16.68
2019-05-20T07:37:23.069Z,16.73
2019-05-20T07:38:23.036Z,16.75
2019-05-20T07:39:23.023Z,16.68
2019-05-20T07:40:23.007Z,16.68
2019-05-20T07:41:22.999Z,16.71
2019-05-20T07:42:23.010Z,16.78
2019-05-20T07:43:22.992Z,16.78
2019-05-20T07:44:22.958Z,16.75
2019-05-20T07:45:22.973Z,16.86
2019-05-20T07:46:22.941Z,16.86
2019-05-20T07:47:22.931Z,16.88
2019-05-20T07:48:23.155Z,16.88
2019-05-20T07:49:22.924Z,16.93
2019-05-20T07:50:22.957Z,16.94
2019-05-20T07:51:22.887Z,16.93
2019-05-20T07:52:22.886Z,17.00
2019-05-20T07:53:22.904Z,17.01
2019-05-20T07:54:22.855Z,16.98
2019-05-20T07:55:22.841Z,16.97
2019-05-20T07:56:22.829Z,17.01
2019-05-20T07:57:22.831Z,17.06
2019-05-20T07:58:22.842Z,17.07
2019-05-20T07:59:22.963Z,17.14
2019-05-20T08:00:22.784Z,17.22
2019-05-20T08:01:22.784Z,17.31
2019-05-20T08:02:22.767Z,17.31
2019-05-20T08:03:22.770Z,17.34
2019-05-20T08:04:22.767Z,17.41
2019-05-20T08:05:22.729Z,17.51
2019-05-20T08:06:22.791Z,17.64
2019-05-20T08:07:29.704Z,17.63
2019-05-20T08:08:23.733Z,17.74
2019-05-20T08:09:22.710Z,17.66
2019-05-20T08:10:22.684Z,17.74
2019-05-20T08:11:22.685Z,17.66
2019-05-20T08:12:22.687Z,17.77
2019-05-20T08:13:22.670Z,17.68
2019-05-20T08:14:22.666Z,17.77
2019-05-20T08:15:22.639Z,17.79
2019-05-20T08:16:22.619Z,17.79
2019-05-20T08:17:22.612Z,17.72
2019-05-20T08:18:22.599Z,17.71
2019-05-20T08:19:22.632Z,17.71
2019-05-20T08:20:22.564Z,17.72
2019-05-20T08:21:22.587Z,17.72
2019-05-20T08:22:22.545Z,17.74
2019-05-20T08:23:22.551Z,17.72
2019-05-20T08:24:22.551Z,17.77
2019-05-20T08:25:22.510Z,17.72
2019-05-20T08:26:22.493Z,17.82
2019-05-20T08:27:22.488Z,17.79
2019-05-20T08:28:22.513Z,17.82
2019-05-20T08:29:22.482Z,17.72
2019-05-20T08:30:22.481Z,17.74
2019-05-20T08:31:22.514Z,17.87
2019-05-20T08:32:22.459Z,17.75
2019-05-20T08:33:22.426Z,17.72
2019-05-20T08:34:22.428Z,17.74
2019-05-20T08:35:23.807Z,17.78
2019-05-20T08:36:22.390Z,17.82
2019-05-20T08:37:22.410Z,17.81
2019-05-20T08:38:22.380Z,17.75
2019-05-20T08:39:22.387Z,17.84
2019-05-20T08:40:22.344Z,17.89
2019-05-20T08:41:22.461Z,17.90
2019-05-20T08:42:22.330Z,17.89
2019-05-20T08:43:22.341Z,17.79
2019-05-20T08:44:22.344Z,17.96
2019-05-20T08:45:22.285Z,17.92
2019-05-20T08:46:22.275Z,18.02
2019-05-20T08:47:22.293Z,18.02
2019-05-20T08:48:22.285Z,18.05
2019-05-20T08:49:22.276Z,18.10
2019-05-20T08:50:22.234Z,18.10
2019-05-20T08:51:22.246Z,18.18
2019-05-20T08:52:22.214Z,18.12
2019-05-20T08:53:22.199Z,18.27
2019-05-20T08:54:22.253Z,18.35
2019-05-20T08:55:22.178Z,18.45
2019-05-20T08:56:22.180Z,18.47
2019-05-20T08:57:22.167Z,18.62
2019-05-20T08:58:22.159Z,18.52
2019-05-20T08:59:22.153Z,18.69
2019-05-20T09:00:24.125Z,18.69
2019-05-20T09:01:22.117Z,18.67
2019-05-20T09:02:22.120Z,18.76
2019-05-20T09:03:22.104Z,18.90
2019-05-20T09:04:22.099Z,18.94
2019-05-20T09:05:22.089Z,19.08
2019-05-20T09:06:22.055Z,19.14
2019-05-20T09:07:22.049Z,19.23
2019-05-20T09:08:22.040Z,19.31
2019-05-20T09:09:22.081Z,19.46
2019-05-20T09:10:22.020Z,19.43
2019-05-20T09:11:22.045Z,19.61
2019-05-20T09:12:21.999Z,19.69
2019-05-20T09:13:21.981Z,19.77
2019-05-20T09:14:21.993Z,19.86
2019-05-20T09:15:21.959Z,20.02
2019-05-20T09:16:21.975Z,19.98
2019-05-20T09:17:21.938Z,20.18
2019-05-20T09:18:21.927Z,20.29
2019-05-20T09:19:21.911Z,20.28
2019-05-20T09:20:21.940Z,20.39
2019-05-20T09:21:21.921Z,20.52
2019-05-20T09:22:21.882Z,20.62
2019-05-20T09:23:21.870Z,20.57
2019-05-20T09:24:21.883Z,20.73
2019-05-20T09:25:21.851Z,20.69
2019-05-20T09:26:21.852Z,20.79
2019-05-20T09:27:21.829Z,20.72
2019-05-20T09:28:21.817Z,20.77
2019-05-20T09:29:21.800Z,20.76
2019-05-20T09:30:21.925Z,20.79
2019-05-20T09:31:21.799Z,20.87
2019-05-20T09:32:21.781Z,20.91
2019-05-20T09:33:21.764Z,20.91
2019-05-20T09:34:21.749Z,21.03
2019-05-20T09:35:21.742Z,21.13
2019-05-20T09:36:21.752Z,21.14
2019-05-20T09:37:21.722Z,21.27
2019-05-20T09:38:21.729Z,21.35
2019-05-20T09:39:21.704Z,21.34
2019-05-20T09:40:21.692Z,21.37
2019-05-20T09:41:21.704Z,21.44
2019-05-20T09:42:21.677Z,21.56
2019-05-20T09:43:21.663Z,21.54
2019-05-20T09:44:21.663Z,21.54
2019-05-20T09:45:21.637Z,21.58
2019-05-20T09:46:21.638Z,21.67
2019-05-20T09:47:21.672Z,21.69
2019-05-20T09:48:25.012Z,21.75
2019-05-20T09:49:21.663Z,21.80
2019-05-20T09:50:21.587Z,21.83
2019-05-20T09:51:21.595Z,21.90
2019-05-20T09:52:21.558Z,21.94
2019-05-20T09:53:21.559Z,22.10
2019-05-20T09:54:21.551Z,22.14
2019-05-20T09:55:21.540Z,22.15
2019-05-20T09:56:21.554Z,22.18
2019-05-20T09:57:21.494Z,22.21
2019-05-20T09:58:21.546Z,22.25
2019-05-20T09:59:21.475Z,22.33
2019-05-20T10:00:21.467Z,22.35
2019-05-20T10:01:21.472Z,22.28
2019-05-20T10:02:21.472Z,22.39
2019-05-20T10:03:21.447Z,22.52
2019-05-20T10:04:21.461Z,22.43
2019-05-20T10:05:21.434Z,22.40
2019-05-20T10:06:21.415Z,22.37
2019-05-20T10:07:21.415Z,22.42
2019-05-20T10:08:36.263Z,22.39
2019-05-20T10:09:22.373Z,22.39
2019-05-20T10:10:21.359Z,22.39
2019-05-20T10:11:21.347Z,22.39
2019-05-20T10:12:21.366Z,22.45
2019-05-20T10:13:21.316Z,22.28
2019-05-20T10:14:21.310Z,22.27
2019-05-20T10:15:21.313Z,22.25
2019-05-20T10:16:21.290Z,22.27
2019-05-20T10:17:21.318Z,22.21
2019-05-20T10:18:35.926Z,22.20
2019-05-20T10:19:22.253Z,22.12
2019-05-20T10:20:21.245Z,22.06
2019-05-20T10:21:21.229Z,22.06
2019-05-20T10:22:21.222Z,22.06
2019-05-20T10:23:21.247Z,22.09
2019-05-20T10:24:21.230Z,22.15
2019-05-20T10:25:21.211Z,22.10
2019-05-20T10:26:21.189Z,22.17
2019-05-20T10:27:21.179Z,22.17
2019-05-20T10:28:21.169Z,22.18
2019-05-20T10:29:21.165Z,22.17
2019-05-20T10:30:21.156Z,22.20
2019-05-20T10:31:21.130Z,22.15
2019-05-20T10:32:21.127Z,22.21
2019-05-20T10:33:21.117Z,22.18
2019-05-20T10:34:21.088Z,22.14
2019-05-20T10:35:21.080Z,22.20
2019-05-20T10:36:21.077Z,22.14
2019-05-20T10:37:21.067Z,22.15
2019-05-20T10:38:21.223Z,22.06
2019-05-20T10:39:21.039Z,22.12
2019-05-20T10:40:21.042Z,22.18
2019-05-20T10:41:21.068Z,22.17
2019-05-20T10:42:21.036Z,22.14
2019-05-20T10:43:21.018Z,22.17
2019-05-20T10:44:20.982Z,22.20
2019-05-20T10:45:20.970Z,22.18
2019-05-20T10:46:20.989Z,22.14
2019-05-20T10:47:21.140Z,22.15
2019-05-20T10:48:20.970Z,22.10
2019-05-20T10:49:20.953Z,22.03
2019-05-20T10:50:20.920Z,21.94
2019-05-20T10:51:20.905Z,21.92
2019-05-20T10:52:20.895Z,21.82
2019-05-20T10:53:20.899Z,21.77
2019-05-20T10:54:20.884Z,21.77
2019-05-20T10:55:20.874Z,21.72
2019-05-20T10:56:20.854Z,21.65
2019-05-20T10:57:20.844Z,21.61
2019-05-20T10:58:20.844Z,21.54
2019-05-20T10:59:20.812Z,21.52
2019-05-20T11:00:20.881Z,21.49
2019-05-20T11:01:20.793Z,21.42
2019-05-20T11:02:20.792Z,21.34
2019-05-20T11:03:20.799Z,21.29
2019-05-20T11:04:20.778Z,21.28
2019-05-20T11:05:20.746Z,21.10
2019-05-20T11:06:20.762Z,21.06
2019-05-20T11:07:20.755Z,21.09
2019-05-20T11:08:20.731Z,20.99
2019-05-20T11:09:20.709Z,20.89
2019-05-20T11:10:20.694Z,20.84
2019-05-20T11:11:20.681Z,20.79
2019-05-20T11:12:20.701Z,20.74
2019-05-20T11:13:20.716Z,20.73
2019-05-20T11:14:20.671Z,20.66
2019-05-20T11:15:20.652Z,20.69
2019-05-20T11:16:20.623Z,20.62
2019-05-20T11:17:20.622Z,20.55
2019-05-20T11:18:20.632Z,20.43
2019-05-20T11:19:20.617Z,20.50
2019-05-20T11:20:20.582Z,20.38
2019-05-20T11:21:20.588Z,20.35
2019-05-20T11:22:20.564Z,20.32
2019-05-20T11:23:20.557Z,20.24
2019-05-20T11:24:20.569Z,20.17
2019-05-20T11:25:20.538Z,20.11
2019-05-20T11:26:20.527Z,20.06
2019-05-20T11:27:20.540Z,20.06
2019-05-20T11:28:20.499Z,20.03
2019-05-20T11:29:20.521Z,19.94
2019-05-20T11:30:20.478Z,19.94
2019-05-20T11:31:20.467Z,19.84
2019-05-20T11:32:20.465Z,19.73
2019-05-20T11:33:20.464Z,19.69
2019-05-20T11:34:20.448Z,19.71
2019-05-20T11:35:20.454Z,19.63
2019-05-20T11:36:20.412Z,19.61
2019-05-20T11:37:20.399Z,19.63
2019-05-20T11:38:20.403Z,19.51
2019-05-20T11:39:32.584Z,19.54
2019-05-20T11:40:21.382Z,19.54
2019-05-20T11:41:20.365Z,19.55
2019-05-20T11:42:20.343Z,19.56
2019-05-20T11:43:20.348Z,19.55
2019-05-20T11:44:20.352Z,19.56
2019-05-20T11:45:20.461Z,19.46
2019-05-20T11:46:20.309Z,19.43
2019-05-20T11:47:20.328Z,19.39
2019-05-20T11:48:20.305Z,19.25
2019-05-20T11:49:20.306Z,19.28
2019-05-20T11:50:20.276Z,19.23
2019-05-20T11:51:20.263Z,19.21
2019-05-20T11:52:20.251Z,19.22
2019-05-20T11:53:20.230Z,19.11
2019-05-20T11:54:20.225Z,19.19
2019-05-20T11:55:20.249Z,19.14
2019-05-20T11:56:20.189Z,19.13
2019-05-20T11:57:20.198Z,19.11
2019-05-20T11:58:20.171Z,18.94
2019-05-20T11:59:20.209Z,19.08
2019-05-20T12:00:20.172Z,18.99
2019-05-20T12:01:20.146Z,18.94
2019-05-20T12:02:20.127Z,19.04
2019-05-20T12:03:20.133Z,18.91
2019-05-20T12:04:20.121Z,18.92
2019-05-20T12:05:20.119Z,18.95
2019-05-20T12:06:20.083Z,18.91
2019-05-20T12:07:20.078Z,18.90
2019-05-20T12:08:20.071Z,18.88
2019-05-20T12:09:20.066Z,18.87
2019-05-20T12:10:20.058Z,18.80
2019-05-20T12:11:20.044Z,18.78
2019-05-20T12:12:20.035Z,18.85
2019-05-20T12:13:20.000Z,18.87
2019-05-20T12:14:20.002Z,18.84
2019-05-20T12:15:20.039Z,18.70
2019-05-20T12:16:19.974Z,18.72
2019-05-20T12:17:19.959Z,18.84
2019-05-20T12:18:19.952Z,18.65
2019-05-20T12:19:19.943Z,18.76
2019-05-20T12:20:19.931Z,18.78
2019-05-20T12:21:19.942Z,18.69
2019-05-20T12:22:19.913Z,18.80
2019-05-20T12:23:19.894Z,18.78
2019-05-20T12:24:19.899Z,18.81
2019-05-20T12:25:19.876Z,18.75
2019-05-20T12:26:22.624Z,18.73
2019-05-20T12:27:19.877Z,18.76
2019-05-20T12:28:19.864Z,18.78
2019-05-20T12:29:19.838Z,18.76
2019-05-20T12:30:19.845Z,18.73
2019-05-20T12:31:19.832Z,18.73
2019-05-20T12:32:19.814Z,18.62
2019-05-20T12:33:20.091Z,18.66
2019-05-20T12:34:19.776Z,18.66
2019-05-20T12:35:19.792Z,18.66
2019-05-20T12:36:19.794Z,18.57
2019-05-20T12:37:19.749Z,18.62
2019-05-20T12:38:19.745Z,18.48
2019-05-20T12:39:19.720Z,18.45
2019-05-20T12:40:19.729Z,18.42
2019-05-20T12:41:19.736Z,18.41
2019-05-20T12:42:19.728Z,18.36
2019-05-20T12:43:19.679Z,18.27
2019-05-20T12:44:19.668Z,18.35
2019-05-20T12:45:19.667Z,18.27
2019-05-20T12:46:19.722Z,18.25
2019-05-20T12:47:19.645Z,18.20
2019-05-20T12:48:19.638Z,18.15
2019-05-20T12:49:19.668Z,18.21
2019-05-20T12:50:19.615Z,18.17
2019-05-20T12:51:19.591Z,18.12
2019-05-20T12:52:19.596Z,18.11